sensor_id;sensor_type;location;lat;lon;timestamp;P1;durP1;ratioP1;P2;durP2;ratioP2
80732;SDS011;70130;44.534;18.678;2023-07-09T00:00:39;10.70;;;6.07;;
80732;SDS011;70130;44.534;18.678;2023-07-09T00:03:05;8.25;;;6.30;;
80732;SDS011;70130;44.534;18.678;2023-07-09T00:05:31;8.10;;;6.40;;
80732;SDS011;70130;44.534;18.678;2023-07-09T00:07:57;8.95;;;6.00;;
80732;SDS011;70130;44.534;18.678;2023-07-09T00:10:22;9.68;;;6.20;;
80732;SDS011;70130;44.534;18.678;2023-07-09T00:12:48;9.70;;;6.63;;
80732;SDS011;70130;44.534;18.678;2023-07-09T00:15:14;8.57;;;6.28;;
80732;SDS011;70130;44.534;18.678;2023-07-09T00:17:41;10.13;;;6.18;;
80732;SDS011;70130;44.534;18.678;2023-07-09T00:20:10;10.82;;;5.72;;
80732;SDS011;70130;44.534;18.678;2023-07-09T00:22:38;7.50;;;5.40;;
80732;SDS011;70130;44.534;18.678;2023-07-09T00:25:04;8.43;;;6.07;;
80732;SDS011;70130;44.534;18.678;2023-07-09T00:27:30;10.32;;;6.47;;
80732;SDS011;70130;44.534;18.678;2023-07-09T00:29:56;10.55;;;6.40;;
80732;SDS011;70130;44.534;18.678;2023-07-09T00:32:22;9.52;;;6.45;;
80732;SDS011;70130;44.534;18.678;2023-07-09T00:34:50;9.77;;;6.55;;
80732;SDS011;70130;44.534;18.678;2023-07-09T00:37:20;12.82;;;7.05;;
80732;SDS011;70130;44.534;18.678;2023-07-09T00:39:51;15.57;;;7.68;;
80732;SDS011;70130;44.534;18.678;2023-07-09T00:42:19;10.00;;;6.88;;
80732;SDS011;70130;44.534;18.678;2023-07-09T00:44:47;9.30;;;7.05;;
80732;SDS011;70130;44.534;18.678;2023-07-09T00:47:27;10.85;;;6.60;;
80732;SDS011;70130;44.534;18.678;2023-07-09T00:52:58;9.30;;;6.07;;
80732;SDS011;70130;44.534;18.678;2023-07-09T00:55:28;7.32;;;5.53;;
80732;SDS011;70130;44.534;18.678;2023-07-09T00:57:59;9.85;;;6.00;;
80732;SDS011;70130;44.534;18.678;2023-07-09T01:00:30;10.27;;;5.82;;
80732;SDS011;70130;44.534;18.678;2023-07-09T01:03:10;11.23;;;6.43;;
80732;SDS011;70130;44.534;18.678;2023-07-09T01:05:38;8.13;;;6.00;;
80732;SDS011;70130;44.534;18.678;2023-07-09T01:08:05;8.45;;;5.88;;
80732;SDS011;70130;44.534;18.678;2023-07-09T01:10:34;11.82;;;5.85;;
80732;SDS011;70130;44.534;18.678;2023-07-09T01:13:00;7.82;;;5.63;;
80732;SDS011;70130;44.534;18.678;2023-07-09T01:15:27;10.57;;;6.40;;
80732;SDS011;70130;44.534;18.678;2023-07-09T01:17:52;9.35;;;6.15;;
80732;SDS011;70130;44.534;18.678;2023-07-09T01:20:19;9.05;;;5.80;;
80732;SDS011;70130;44.534;18.678;2023-07-09T01:22:50;7.05;;;5.43;;
80732;SDS011;70130;44.534;18.678;2023-07-09T01:25:19;9.55;;;5.93;;
80732;SDS011;70130;44.534;18.678;2023-07-09T01:27:46;7.93;;;5.13;;
80732;SDS011;70130;44.534;18.678;2023-07-09T01:32:51;8.52;;;5.88;;
80732;SDS011;70130;44.534;18.678;2023-07-09T01:35:22;7.30;;;5.50;;
80732;SDS011;70130;44.534;18.678;2023-07-09T01:37:48;9.18;;;5.40;;
80732;SDS011;70130;44.534;18.678;2023-07-09T01:40:15;8.98;;;5.97;;
80732;SDS011;70130;44.534;18.678;2023-07-09T01:42:44;9.85;;;5.72;;
80732;SDS011;70130;44.534;18.678;2023-07-09T01:45:11;8.50;;;5.18;;
80732;SDS011;70130;44.534;18.678;2023-07-09T01:47:38;12.10;;;5.65;;
80732;SDS011;70130;44.534;18.678;2023-07-09T01:50:05;8.10;;;5.95;;
80732;SDS011;70130;44.534;18.678;2023-07-09T01:52:32;9.38;;;5.50;;
80732;SDS011;70130;44.534;18.678;2023-07-09T01:55:00;13.07;;;5.65;;
80732;SDS011;70130;44.534;18.678;2023-07-09T01:57:30;11.68;;;5.60;;
80732;SDS011;70130;44.534;18.678;2023-07-09T01:59:59;7.07;;;4.95;;
80732;SDS011;70130;44.534;18.678;2023-07-09T02:02:39;6.93;;;5.35;;
80732;SDS011;70130;44.534;18.678;2023-07-09T02:07:36;7.45;;;5.78;;
80732;SDS011;70130;44.534;18.678;2023-07-09T02:10:01;7.85;;;5.47;;
80732;SDS011;70130;44.534;18.678;2023-07-09T02:12:27;8.95;;;5.57;;
80732;SDS011;70130;44.534;18.678;2023-07-09T02:14:53;8.55;;;5.68;;
80732;SDS011;70130;44.534;18.678;2023-07-09T02:17:19;6.55;;;4.97;;
80732;SDS011;70130;44.534;18.678;2023-07-09T02:19:44;7.90;;;5.43;;
80732;SDS011;70130;44.534;18.678;2023-07-09T02:22:10;8.20;;;5.30;;
80732;SDS011;70130;44.534;18.678;2023-07-09T02:24:36;9.90;;;6.05;;
80732;SDS011;70130;44.534;18.678;2023-07-09T02:27:05;7.95;;;5.85;;
80732;SDS011;70130;44.534;18.678;2023-07-09T02:29:32;8.48;;;5.35;;
80732;SDS011;70130;44.534;18.678;2023-07-09T02:31:59;9.27;;;5.50;;
80732;SDS011;70130;44.534;18.678;2023-07-09T02:34:26;9.43;;;6.03;;
80732;SDS011;70130;44.534;18.678;2023-07-09T02:36:53;8.25;;;5.40;;
80732;SDS011;70130;44.534;18.678;2023-07-09T02:39:20;8.32;;;4.97;;
80732;SDS011;70130;44.534;18.678;2023-07-09T02:41:46;9.73;;;5.93;;
80732;SDS011;70130;44.534;18.678;2023-07-09T02:44:12;9.25;;;5.05;;
80732;SDS011;70130;44.534;18.678;2023-07-09T02:46:38;9.93;;;5.75;;
80732;SDS011;70130;44.534;18.678;2023-07-09T02:49:05;8.77;;;5.40;;
80732;SDS011;70130;44.534;18.678;2023-07-09T02:51:32;11.38;;;5.50;;
80732;SDS011;70130;44.534;18.678;2023-07-09T02:53:59;9.63;;;5.43;;
80732;SDS011;70130;44.534;18.678;2023-07-09T02:56:26;8.30;;;5.15;;
80732;SDS011;70130;44.534;18.678;2023-07-09T02:58:52;9.35;;;5.60;;
80732;SDS011;70130;44.534;18.678;2023-07-09T03:01:18;6.80;;;5.35;;
80732;SDS011;70130;44.534;18.678;2023-07-09T03:03:51;7.57;;;5.38;;
80732;SDS011;70130;44.534;18.678;2023-07-09T03:06:18;7.03;;;5.47;;
80732;SDS011;70130;44.534;18.678;2023-07-09T03:08:45;6.95;;;5.63;;
80732;SDS011;70130;44.534;18.678;2023-07-09T03:11:11;10.32;;;5.85;;
80732;SDS011;70130;44.534;18.678;2023-07-09T03:13:38;10.63;;;5.47;;
80732;SDS011;70130;44.534;18.678;2023-07-09T03:16:04;8.23;;;5.22;;
80732;SDS011;70130;44.534;18.678;2023-07-09T03:18:30;10.35;;;6.05;;
80732;SDS011;70130;44.534;18.678;2023-07-09T03:20:56;12.25;;;5.53;;
80732;SDS011;70130;44.534;18.678;2023-07-09T03:23:22;8.48;;;5.65;;
80732;SDS011;70130;44.534;18.678;2023-07-09T03:25:47;8.57;;;5.53;;
80732;SDS011;70130;44.534;18.678;2023-07-09T03:28:13;7.97;;;5.28;;
80732;SDS011;70130;44.534;18.678;2023-07-09T03:30:42;10.38;;;5.82;;
80732;SDS011;70130;44.534;18.678;2023-07-09T03:33:09;11.05;;;6.00;;
80732;SDS011;70130;44.534;18.678;2023-07-09T03:35:35;8.45;;;5.80;;
80732;SDS011;70130;44.534;18.678;2023-07-09T03:38:01;9.70;;;5.07;;
80732;SDS011;70130;44.534;18.678;2023-07-09T03:40:27;10.38;;;5.68;;
80732;SDS011;70130;44.534;18.678;2023-07-09T03:42:53;6.82;;;5.10;;
80732;SDS011;70130;44.534;18.678;2023-07-09T03:45:18;9.45;;;5.68;;
80732;SDS011;70130;44.534;18.678;2023-07-09T03:47:44;10.90;;;5.50;;
80732;SDS011;70130;44.534;18.678;2023-07-09T03:50:09;8.05;;;5.28;;
80732;SDS011;70130;44.534;18.678;2023-07-09T03:52:36;10.13;;;5.25;;
80732;SDS011;70130;44.534;18.678;2023-07-09T03:55:02;9.45;;;5.43;;
80732;SDS011;70130;44.534;18.678;2023-07-09T03:57:32;8.18;;;4.85;;
80732;SDS011;70130;44.534;18.678;2023-07-09T03:59:58;7.88;;;5.03;;
80732;SDS011;70130;44.534;18.678;2023-07-09T04:02:24;9.50;;;5.40;;
80732;SDS011;70130;44.534;18.678;2023-07-09T04:04:50;8.55;;;5.80;;
80732;SDS011;70130;44.534;18.678;2023-07-09T04:07:15;12.60;;;5.38;;
80732;SDS011;70130;44.534;18.678;2023-07-09T04:09:41;7.15;;;5.60;;
80732;SDS011;70130;44.534;18.678;2023-07-09T04:12:07;9.40;;;5.55;;
80732;SDS011;70130;44.534;18.678;2023-07-09T04:14:34;11.23;;;5.75;;
80732;SDS011;70130;44.534;18.678;2023-07-09T04:17:00;9.02;;;5.70;;
80732;SDS011;70130;44.534;18.678;2023-07-09T04:19:26;6.68;;;5.18;;
80732;SDS011;70130;44.534;18.678;2023-07-09T04:21:52;10.00;;;5.90;;
80732;SDS011;70130;44.534;18.678;2023-07-09T04:24:18;8.07;;;5.50;;
80732;SDS011;70130;44.534;18.678;2023-07-09T04:26:45;10.52;;;6.00;;
80732;SDS011;70130;44.534;18.678;2023-07-09T04:29:11;7.20;;;4.82;;
80732;SDS011;70130;44.534;18.678;2023-07-09T04:31:38;8.57;;;5.80;;
80732;SDS011;70130;44.534;18.678;2023-07-09T04:34:04;10.57;;;6.07;;
80732;SDS011;70130;44.534;18.678;2023-07-09T04:36:29;11.05;;;5.85;;
80732;SDS011;70130;44.534;18.678;2023-07-09T04:38:56;8.07;;;5.82;;
80732;SDS011;70130;44.534;18.678;2023-07-09T04:41:22;11.20;;;6.53;;
80732;SDS011;70130;44.534;18.678;2023-07-09T04:43:47;8.23;;;5.85;;
80732;SDS011;70130;44.534;18.678;2023-07-09T04:46:13;11.30;;;5.65;;
80732;SDS011;70130;44.534;18.678;2023-07-09T04:48:38;9.43;;;5.82;;
80732;SDS011;70130;44.534;18.678;2023-07-09T04:51:04;9.63;;;5.55;;
80732;SDS011;70130;44.534;18.678;2023-07-09T04:53:30;9.10;;;5.72;;
80732;SDS011;70130;44.534;18.678;2023-07-09T04:55:56;12.55;;;6.43;;
80732;SDS011;70130;44.534;18.678;2023-07-09T04:58:21;11.77;;;6.22;;
80732;SDS011;70130;44.534;18.678;2023-07-09T05:00:47;11.07;;;6.70;;
80732;SDS011;70130;44.534;18.678;2023-07-09T05:03:13;10.60;;;6.35;;
80732;SDS011;70130;44.534;18.678;2023-07-09T05:05:43;9.90;;;6.38;;
80732;SDS011;70130;44.534;18.678;2023-07-09T05:08:10;11.52;;;6.78;;
80732;SDS011;70130;44.534;18.678;2023-07-09T05:10:40;10.07;;;6.35;;
80732;SDS011;70130;44.534;18.678;2023-07-09T05:13:07;8.73;;;5.88;;
80732;SDS011;70130;44.534;18.678;2023-07-09T05:15:32;12.82;;;6.93;;
80732;SDS011;70130;44.534;18.678;2023-07-09T05:17:58;9.30;;;5.72;;
80732;SDS011;70130;44.534;18.678;2023-07-09T05:20:24;10.95;;;5.95;;
80732;SDS011;70130;44.534;18.678;2023-07-09T05:22:51;11.32;;;7.15;;
80732;SDS011;70130;44.534;18.678;2023-07-09T05:25:17;8.23;;;5.90;;
80732;SDS011;70130;44.534;18.678;2023-07-09T05:27:43;8.65;;;6.05;;
80732;SDS011;70130;44.534;18.678;2023-07-09T05:30:09;11.80;;;5.70;;
80732;SDS011;70130;44.534;18.678;2023-07-09T05:32:36;8.55;;;5.75;;
80732;SDS011;70130;44.534;18.678;2023-07-09T05:35:02;11.23;;;5.75;;
80732;SDS011;70130;44.534;18.678;2023-07-09T05:37:28;10.38;;;5.90;;
80732;SDS011;70130;44.534;18.678;2023-07-09T05:39:53;10.00;;;6.10;;
80732;SDS011;70130;44.534;18.678;2023-07-09T05:42:19;12.02;;;6.22;;
80732;SDS011;70130;44.534;18.678;2023-07-09T05:44:45;10.95;;;6.15;;
80732;SDS011;70130;44.534;18.678;2023-07-09T05:47:10;9.95;;;6.43;;
80732;SDS011;70130;44.534;18.678;2023-07-09T05:49:37;8.73;;;6.45;;
80732;SDS011;70130;44.534;18.678;2023-07-09T05:52:03;10.27;;;5.82;;
80732;SDS011;70130;44.534;18.678;2023-07-09T05:54:29;11.18;;;6.25;;
80732;SDS011;70130;44.534;18.678;2023-07-09T05:56:55;13.15;;;6.57;;
80732;SDS011;70130;44.534;18.678;2023-07-09T05:59:20;10.50;;;6.55;;
80732;SDS011;70130;44.534;18.678;2023-07-09T06:01:46;11.13;;;6.55;;
80732;SDS011;70130;44.534;18.678;2023-07-09T06:04:12;9.85;;;6.30;;
80732;SDS011;70130;44.534;18.678;2023-07-09T06:06:39;10.88;;;7.07;;
80732;SDS011;70130;44.534;18.678;2023-07-09T06:09:07;10.52;;;6.93;;
80732;SDS011;70130;44.534;18.678;2023-07-09T06:11:35;8.60;;;6.50;;
80732;SDS011;70130;44.534;18.678;2023-07-09T06:14:01;8.50;;;6.25;;
80732;SDS011;70130;44.534;18.678;2023-07-09T06:16:26;9.93;;;6.78;;
80732;SDS011;70130;44.534;18.678;2023-07-09T06:18:52;9.82;;;6.75;;
80732;SDS011;70130;44.534;18.678;2023-07-09T06:21:18;10.63;;;7.45;;
80732;SDS011;70130;44.534;18.678;2023-07-09T06:23:47;12.35;;;7.38;;
80732;SDS011;70130;44.534;18.678;2023-07-09T06:26:12;11.80;;;7.35;;
80732;SDS011;70130;44.534;18.678;2023-07-09T06:28:38;11.18;;;7.53;;
80732;SDS011;70130;44.534;18.678;2023-07-09T06:31:03;8.93;;;6.68;;
80732;SDS011;70130;44.534;18.678;2023-07-09T06:33:29;9.73;;;7.10;;
80732;SDS011;70130;44.534;18.678;2023-07-09T06:35:59;11.57;;;7.68;;
80732;SDS011;70130;44.534;18.678;2023-07-09T06:38:26;12.27;;;8.32;;
80732;SDS011;70130;44.534;18.678;2023-07-09T06:40:53;18.02;;;8.20;;
80732;SDS011;70130;44.534;18.678;2023-07-09T06:43:19;9.48;;;7.03;;
80732;SDS011;70130;44.534;18.678;2023-07-09T06:45:54;13.82;;;8.07;;
80732;SDS011;70130;44.534;18.678;2023-07-09T06:48:22;11.40;;;8.30;;
80732;SDS011;70130;44.534;18.678;2023-07-09T06:50:48;10.52;;;7.50;;
80732;SDS011;70130;44.534;18.678;2023-07-09T06:53:14;11.23;;;7.45;;
80732;SDS011;70130;44.534;18.678;2023-07-09T06:55:41;12.98;;;7.90;;
80732;SDS011;70130;44.534;18.678;2023-07-09T06:58:07;9.82;;;7.30;;
80732;SDS011;70130;44.534;18.678;2023-07-09T07:00:36;12.57;;;7.85;;
80732;SDS011;70130;44.534;18.678;2023-07-09T07:03:02;9.82;;;7.65;;
80732;SDS011;70130;44.534;18.678;2023-07-09T07:05:28;10.18;;;7.30;;
80732;SDS011;70130;44.534;18.678;2023-07-09T07:07:54;9.80;;;7.55;;
80732;SDS011;70130;44.534;18.678;2023-07-09T07:10:20;10.00;;;7.20;;
80732;SDS011;70130;44.534;18.678;2023-07-09T07:12:46;14.18;;;8.13;;
80732;SDS011;70130;44.534;18.678;2023-07-09T07:15:14;16.35;;;8.95;;
80732;SDS011;70130;44.534;18.678;2023-07-09T07:17:42;13.35;;;7.28;;
80732;SDS011;70130;44.534;18.678;2023-07-09T07:20:08;15.45;;;8.40;;
80732;SDS011;70130;44.534;18.678;2023-07-09T07:22:36;13.43;;;8.18;;
80732;SDS011;70130;44.534;18.678;2023-07-09T07:25:03;14.63;;;8.25;;
80732;SDS011;70130;44.534;18.678;2023-07-09T07:27:29;12.73;;;8.88;;
80732;SDS011;70130;44.534;18.678;2023-07-09T07:29:55;12.57;;;8.13;;
80732;SDS011;70130;44.534;18.678;2023-07-09T07:32:21;11.73;;;8.52;;
80732;SDS011;70130;44.534;18.678;2023-07-09T07:34:47;15.23;;;9.13;;
80732;SDS011;70130;44.534;18.678;2023-07-09T07:37:13;14.73;;;9.15;;
80732;SDS011;70130;44.534;18.678;2023-07-09T07:39:39;11.15;;;8.15;;
80732;SDS011;70130;44.534;18.678;2023-07-09T07:42:06;16.05;;;8.38;;
80732;SDS011;70130;44.534;18.678;2023-07-09T07:44:31;14.38;;;8.02;;
80732;SDS011;70130;44.534;18.678;2023-07-09T07:46:57;12.27;;;8.85;;
80732;SDS011;70130;44.534;18.678;2023-07-09T07:49:23;14.45;;;8.35;;
80732;SDS011;70130;44.534;18.678;2023-07-09T07:51:48;14.60;;;7.95;;
80732;SDS011;70130;44.534;18.678;2023-07-09T07:54:14;14.50;;;8.75;;
80732;SDS011;70130;44.534;18.678;2023-07-09T07:56:40;11.88;;;8.70;;
80732;SDS011;70130;44.534;18.678;2023-07-09T07:59:06;12.40;;;8.65;;
80732;SDS011;70130;44.534;18.678;2023-07-09T08:01:32;11.93;;;8.00;;
80732;SDS011;70130;44.534;18.678;2023-07-09T08:04:00;11.90;;;8.32;;
80732;SDS011;70130;44.534;18.678;2023-07-09T08:06:27;11.70;;;7.88;;
80732;SDS011;70130;44.534;18.678;2023-07-09T08:08:52;11.63;;;8.18;;
80732;SDS011;70130;44.534;18.678;2023-07-09T08:11:18;12.10;;;7.82;;
80732;SDS011;70130;44.534;18.678;2023-07-09T08:13:43;9.82;;;7.63;;
80732;SDS011;70130;44.534;18.678;2023-07-09T08:16:09;12.02;;;8.27;;
80732;SDS011;70130;44.534;18.678;2023-07-09T08:18:37;11.73;;;8.25;;
80732;SDS011;70130;44.534;18.678;2023-07-09T08:21:03;12.38;;;8.45;;
80732;SDS011;70130;44.534;18.678;2023-07-09T08:23:29;13.85;;;8.23;;
80732;SDS011;70130;44.534;18.678;2023-07-09T08:25:55;15.00;;;8.25;;
80732;SDS011;70130;44.534;18.678;2023-07-09T08:28:22;10.55;;;7.82;;
80732;SDS011;70130;44.534;18.678;2023-07-09T08:30:48;9.38;;;8.02;;
80732;SDS011;70130;44.534;18.678;2023-07-09T08:33:16;9.82;;;7.22;;
80732;SDS011;70130;44.534;18.678;2023-07-09T08:35:42;13.77;;;8.43;;
80732;SDS011;70130;44.534;18.678;2023-07-09T08:38:08;12.30;;;7.85;;
80732;SDS011;70130;44.534;18.678;2023-07-09T08:40:35;12.15;;;7.32;;
80732;SDS011;70130;44.534;18.678;2023-07-09T08:43:29;10.95;;;7.50;;
80732;SDS011;70130;44.534;18.678;2023-07-09T08:46:10;12.40;;;7.30;;
80732;SDS011;70130;44.534;18.678;2023-07-09T08:48:47;9.68;;;6.72;;
80732;SDS011;70130;44.534;18.678;2023-07-09T08:51:19;14.05;;;7.82;;
80732;SDS011;70130;44.534;18.678;2023-07-09T08:53:53;11.85;;;6.70;;
80732;SDS011;70130;44.534;18.678;2023-07-09T08:56:22;10.73;;;7.50;;
80732;SDS011;70130;44.534;18.678;2023-07-09T08:58:49;9.38;;;7.00;;
80732;SDS011;70130;44.534;18.678;2023-07-09T09:01:22;10.95;;;7.25;;
80732;SDS011;70130;44.534;18.678;2023-07-09T09:03:53;11.90;;;7.22;;
80732;SDS011;70130;44.534;18.678;2023-07-09T09:06:28;9.77;;;6.60;;
80732;SDS011;70130;44.534;18.678;2023-07-09T09:14:40;10.43;;;6.25;;
80732;SDS011;70130;44.534;18.678;2023-07-09T09:17:17;7.35;;;5.63;;
80732;SDS011;70130;44.534;18.678;2023-07-09T09:22:17;7.80;;;5.97;;
80732;SDS011;70130;44.534;18.678;2023-07-09T09:27:47;5.80;;;4.38;;
80732;SDS011;70130;44.534;18.678;2023-07-09T09:30:14;5.78;;;4.88;;
80732;SDS011;70130;44.534;18.678;2023-07-09T09:32:45;7.60;;;5.60;;
80732;SDS011;70130;44.534;18.678;2023-07-09T09:35:14;6.40;;;5.47;;
80732;SDS011;70130;44.534;18.678;2023-07-09T09:37:44;6.53;;;5.22;;
80732;SDS011;70130;44.534;18.678;2023-07-09T09:40:17;7.93;;;5.75;;
80732;SDS011;70130;44.534;18.678;2023-07-09T09:42:47;10.93;;;6.15;;
80732;SDS011;70130;44.534;18.678;2023-07-09T09:45:14;7.20;;;5.40;;
80732;SDS011;70130;44.534;18.678;2023-07-09T09:47:42;6.97;;;4.97;;
80732;SDS011;70130;44.534;18.678;2023-07-09T09:50:19;8.73;;;5.70;;
80732;SDS011;70130;44.534;18.678;2023-07-09T09:52:46;7.05;;;5.50;;
80732;SDS011;70130;44.534;18.678;2023-07-09T09:55:17;6.85;;;5.65;;
80732;SDS011;70130;44.534;18.678;2023-07-09T09:57:52;7.32;;;5.07;;
80732;SDS011;70130;44.534;18.678;2023-07-09T10:00:21;8.20;;;5.25;;
80732;SDS011;70130;44.534;18.678;2023-07-09T10:02:50;8.45;;;5.30;;
80732;SDS011;70130;44.534;18.678;2023-07-09T10:05:21;7.38;;;5.68;;
80732;SDS011;70130;44.534;18.678;2023-07-09T10:10:34;9.75;;;5.90;;
80732;SDS011;70130;44.534;18.678;2023-07-09T10:18:39;8.02;;;4.93;;
80732;SDS011;70130;44.534;18.678;2023-07-09T10:21:31;7.80;;;5.05;;
80732;SDS011;70130;44.534;18.678;2023-07-09T10:24:15;6.85;;;4.97;;
80732;SDS011;70130;44.534;18.678;2023-07-09T10:26:51;5.55;;;4.95;;
80732;SDS011;70130;44.534;18.678;2023-07-09T10:29:32;6.47;;;5.10;;
80732;SDS011;70130;44.534;18.678;2023-07-09T10:34:55;8.77;;;5.50;;
80732;SDS011;70130;44.534;18.678;2023-07-09T10:38:33;7.10;;;5.43;;
80732;SDS011;70130;44.534;18.678;2023-07-09T10:40:39;7.00;;;4.82;;
80732;SDS011;70130;44.534;18.678;2023-07-09T10:43:14;11.68;;;5.43;;
80732;SDS011;70130;44.534;18.678;2023-07-09T10:45:47;13.27;;;5.80;;
80732;SDS011;70130;44.534;18.678;2023-07-09T10:48:17;8.25;;;5.43;;
80732;SDS011;70130;44.534;18.678;2023-07-09T10:50:53;6.50;;;5.63;;
80732;SDS011;70130;44.534;18.678;2023-07-09T10:56:16;7.13;;;5.13;;
80732;SDS011;70130;44.534;18.678;2023-07-09T11:01:43;5.97;;;5.20;;
80732;SDS011;70130;44.534;18.678;2023-07-09T11:07:10;6.97;;;4.72;;
80732;SDS011;70130;44.534;18.678;2023-07-09T11:09:40;6.35;;;4.82;;
80732;SDS011;70130;44.534;18.678;2023-07-09T11:12:12;6.35;;;4.68;;
80732;SDS011;70130;44.534;18.678;2023-07-09T11:14:42;7.05;;;5.22;;
80732;SDS011;70130;44.534;18.678;2023-07-09T11:17:17;5.25;;;4.75;;
80732;SDS011;70130;44.534;18.678;2023-07-09T11:19:47;6.97;;;4.80;;
80732;SDS011;70130;44.534;18.678;2023-07-09T11:22:22;5.68;;;4.60;;
80732;SDS011;70130;44.534;18.678;2023-07-09T11:24:51;5.80;;;4.50;;
80732;SDS011;70130;44.534;18.678;2023-07-09T11:29:46;6.78;;;5.40;;
80732;SDS011;70130;44.534;18.678;2023-07-09T11:32:20;8.40;;;4.97;;
80732;SDS011;70130;44.534;18.678;2023-07-09T11:34:47;7.10;;;5.20;;
80732;SDS011;70130;44.534;18.678;2023-07-09T11:37:12;6.72;;;5.38;;
80732;SDS011;70130;44.534;18.678;2023-07-09T11:45:06;11.15;;;5.13;;
80732;SDS011;70130;44.534;18.678;2023-07-09T11:47:42;9.25;;;5.97;;
80732;SDS011;70130;44.534;18.678;2023-07-09T11:50:20;6.18;;;4.63;;
80732;SDS011;70130;44.534;18.678;2023-07-09T11:55:40;5.32;;;4.82;;
80732;SDS011;70130;44.534;18.678;2023-07-09T11:58:10;5.70;;;4.85;;
80732;SDS011;70130;44.534;18.678;2023-07-09T12:00:41;8.50;;;5.63;;
80732;SDS011;70130;44.534;18.678;2023-07-09T12:06:00;6.65;;;4.85;;
80732;SDS011;70130;44.534;18.678;2023-07-09T12:08:32;8.73;;;5.07;;
80732;SDS011;70130;44.534;18.678;2023-07-09T12:10:59;9.27;;;5.35;;
80732;SDS011;70130;44.534;18.678;2023-07-09T12:13:25;5.82;;;4.85;;
80732;SDS011;70130;44.534;18.678;2023-07-09T12:15:51;8.10;;;4.75;;
80732;SDS011;70130;44.534;18.678;2023-07-09T12:18:17;6.93;;;4.82;;
80732;SDS011;70130;44.534;18.678;2023-07-09T12:20:52;6.03;;;4.63;;
80732;SDS011;70130;44.534;18.678;2023-07-09T12:25:52;6.45;;;5.25;;
80732;SDS011;70130;44.534;18.678;2023-07-09T12:28:19;10.13;;;5.82;;
80732;SDS011;70130;44.534;18.678;2023-07-09T12:30:46;9.02;;;5.88;;
80732;SDS011;70130;44.534;18.678;2023-07-09T12:33:15;8.82;;;5.35;;
80732;SDS011;70130;44.534;18.678;2023-07-09T12:35:43;6.78;;;5.57;;
80732;SDS011;70130;44.534;18.678;2023-07-09T12:38:15;7.65;;;5.60;;
80732;SDS011;70130;44.534;18.678;2023-07-09T12:40:44;7.05;;;5.55;;
80732;SDS011;70130;44.534;18.678;2023-07-09T12:43:10;6.50;;;5.80;;
80732;SDS011;70130;44.534;18.678;2023-07-09T12:45:36;6.68;;;4.88;;
80732;SDS011;70130;44.534;18.678;2023-07-09T12:48:02;5.25;;;4.72;;
80732;SDS011;70130;44.534;18.678;2023-07-09T12:50:34;5.30;;;4.30;;
80732;SDS011;70130;44.534;18.678;2023-07-09T12:53:02;9.55;;;5.43;;
80732;SDS011;70130;44.534;18.678;2023-07-09T12:55:40;6.97;;;4.57;;
80732;SDS011;70130;44.534;18.678;2023-07-09T12:58:27;5.97;;;4.90;;
80732;SDS011;70130;44.534;18.678;2023-07-09T13:00:55;6.15;;;4.70;;
80732;SDS011;70130;44.534;18.678;2023-07-09T13:03:28;7.65;;;5.05;;
80732;SDS011;70130;44.534;18.678;2023-07-09T13:06:00;6.60;;;4.88;;
80732;SDS011;70130;44.534;18.678;2023-07-09T13:08:41;9.30;;;4.88;;
80732;SDS011;70130;44.534;18.678;2023-07-09T13:11:15;6.22;;;4.63;;
80732;SDS011;70130;44.534;18.678;2023-07-09T13:13:42;6.68;;;5.00;;
80732;SDS011;70130;44.534;18.678;2023-07-09T13:16:22;5.35;;;4.57;;
80732;SDS011;70130;44.534;18.678;2023-07-09T13:18:48;6.07;;;4.95;;
80732;SDS011;70130;44.534;18.678;2023-07-09T13:21:15;11.23;;;5.43;;
80732;SDS011;70130;44.534;18.678;2023-07-09T13:23:42;7.18;;;5.32;;
80732;SDS011;70130;44.534;18.678;2023-07-09T13:26:08;8.00;;;5.07;;
80732;SDS011;70130;44.534;18.678;2023-07-09T13:28:34;6.93;;;5.57;;
80732;SDS011;70130;44.534;18.678;2023-07-09T13:31:01;5.93;;;4.97;;
80732;SDS011;70130;44.534;18.678;2023-07-09T13:33:33;7.00;;;5.10;;
80732;SDS011;70130;44.534;18.678;2023-07-09T13:35:58;10.32;;;5.13;;
80732;SDS011;70130;44.534;18.678;2023-07-09T13:38:24;5.97;;;4.95;;
80732;SDS011;70130;44.534;18.678;2023-07-09T13:40:54;7.40;;;5.38;;
80732;SDS011;70130;44.534;18.678;2023-07-09T13:43:24;6.15;;;5.10;;
80732;SDS011;70130;44.534;18.678;2023-07-09T13:45:53;7.07;;;5.00;;
80732;SDS011;70130;44.534;18.678;2023-07-09T13:48:21;5.43;;;4.47;;
80732;SDS011;70130;44.534;18.678;2023-07-09T13:50:50;6.97;;;4.85;;
80732;SDS011;70130;44.534;18.678;2023-07-09T13:53:19;5.35;;;4.85;;
80732;SDS011;70130;44.534;18.678;2023-07-09T13:55:47;5.07;;;4.55;;
80732;SDS011;70130;44.534;18.678;2023-07-09T13:58:15;6.20;;;5.00;;
80732;SDS011;70130;44.534;18.678;2023-07-09T14:00:42;6.93;;;5.05;;
80732;SDS011;70130;44.534;18.678;2023-07-09T14:03:12;5.40;;;4.70;;
80732;SDS011;70130;44.534;18.678;2023-07-09T14:05:40;6.35;;;5.45;;
80732;SDS011;70130;44.534;18.678;2023-07-09T14:08:07;7.93;;;4.97;;
80732;SDS011;70130;44.534;18.678;2023-07-09T14:10:34;5.95;;;4.72;;
80732;SDS011;70130;44.534;18.678;2023-07-09T14:13:00;6.47;;;5.15;;
80732;SDS011;70130;44.534;18.678;2023-07-09T14:15:27;6.70;;;4.85;;
80732;SDS011;70130;44.534;18.678;2023-07-09T14:17:53;5.20;;;4.28;;
80732;SDS011;70130;44.534;18.678;2023-07-09T14:20:20;6.35;;;4.35;;
80732;SDS011;70130;44.534;18.678;2023-07-09T14:22:47;5.93;;;4.50;;
80732;SDS011;70130;44.534;18.678;2023-07-09T14:25:23;6.57;;;4.47;;
80732;SDS011;70130;44.534;18.678;2023-07-09T14:27:51;6.20;;;5.07;;
80732;SDS011;70130;44.534;18.678;2023-07-09T14:30:19;6.38;;;4.53;;
80732;SDS011;70130;44.534;18.678;2023-07-09T14:32:48;6.73;;;4.70;;
80732;SDS011;70130;44.534;18.678;2023-07-09T14:35:19;5.68;;;4.70;;
80732;SDS011;70130;44.534;18.678;2023-07-09T14:37:46;7.38;;;4.20;;
80732;SDS011;70130;44.534;18.678;2023-07-09T14:40:13;6.07;;;4.20;;
80732;SDS011;70130;44.534;18.678;2023-07-09T14:42:39;5.53;;;4.20;;
80732;SDS011;70130;44.534;18.678;2023-07-09T14:45:06;6.60;;;4.03;;
80732;SDS011;70130;44.534;18.678;2023-07-09T14:47:42;4.90;;;4.40;;
80732;SDS011;70130;44.534;18.678;2023-07-09T14:50:08;5.53;;;4.78;;
80732;SDS011;70130;44.534;18.678;2023-07-09T14:52:34;5.47;;;4.50;;
80732;SDS011;70130;44.534;18.678;2023-07-09T14:55:00;5.38;;;4.20;;
80732;SDS011;70130;44.534;18.678;2023-07-09T14:57:26;5.13;;;4.40;;
80732;SDS011;70130;44.534;18.678;2023-07-09T14:59:55;5.43;;;4.35;;
80732;SDS011;70130;44.534;18.678;2023-07-09T15:02:34;5.25;;;4.75;;
80732;SDS011;70130;44.534;18.678;2023-07-09T15:05:01;5.00;;;4.43;;
80732;SDS011;70130;44.534;18.678;2023-07-09T15:07:32;5.43;;;4.10;;
80732;SDS011;70130;44.534;18.678;2023-07-09T15:09:59;7.18;;;4.20;;
80732;SDS011;70130;44.534;18.678;2023-07-09T15:12:30;5.20;;;4.60;;
80732;SDS011;70130;44.534;18.678;2023-07-09T15:15:06;6.55;;;4.18;;
80732;SDS011;70130;44.534;18.678;2023-07-09T15:17:39;6.03;;;4.13;;
80732;SDS011;70130;44.534;18.678;2023-07-09T15:20:05;6.38;;;4.28;;
80732;SDS011;70130;44.534;18.678;2023-07-09T15:22:37;6.18;;;3.90;;
80732;SDS011;70130;44.534;18.678;2023-07-09T15:25:03;5.82;;;4.32;;
80732;SDS011;70130;44.534;18.678;2023-07-09T15:27:29;6.38;;;4.88;;
80732;SDS011;70130;44.534;18.678;2023-07-09T15:29:54;5.13;;;4.63;;
80732;SDS011;70130;44.534;18.678;2023-07-09T15:32:20;5.85;;;4.47;;